createdAt,value
2018-08-22T00:01:34.544Z,4.37
2018-08-22T00:04:02.076Z,4.30
2018-08-22T00:06:29.590Z,3.90
2018-08-22T00:08:57.107Z,4.03
2018-08-22T00:11:24.590Z,4.07
2018-08-22T00:13:52.081Z,4.37
2018-08-22T00:16:19.611Z,4.07
2018-08-22T00:18:47.858Z,4.13
2018-08-22T00:21:15.472Z,4.20
2018-08-22T00:23:42.954Z,3.83
2018-08-22T00:26:10.466Z,4.73
2018-08-22T00:28:37.974Z,4.77
2018-08-22T00:31:05.810Z,3.80
2018-08-22T00:33:33.310Z,4.40
2018-08-22T00:36:00.821Z,4.37
2018-08-22T00:38:28.305Z,4.87
2018-08-22T00:40:55.869Z,3.87
2018-08-22T00:43:23.359Z,4.50
2018-08-22T00:45:50.859Z,4.70
2018-08-22T00:48:18.354Z,4.87
2018-08-22T00:50:45.894Z,4.32
2018-08-22T00:53:13.819Z,4.90
2018-08-22T00:55:41.327Z,4.40
2018-08-22T00:58:08.828Z,4.70
2018-08-22T01:00:36.474Z,4.43
2018-08-22T01:03:03.968Z,4.93
2018-08-22T01:05:31.471Z,5.33
2018-08-22T01:07:59.092Z,4.97
2018-08-22T01:10:26.797Z,4.50
2018-08-22T01:12:54.296Z,4.57
2018-08-22T01:15:21.836Z,4.70
2018-08-22T01:17:49.327Z,5.50
2018-08-22T01:20:17.803Z,4.43
2018-08-22T01:22:45.482Z,5.60
2018-08-22T01:25:13.905Z,5.00
2018-08-22T01:27:41.409Z,4.70
2018-08-22T01:30:08.886Z,5.53
2018-08-22T01:32:37.156Z,5.13
2018-08-22T01:35:04.662Z,4.50
2018-08-22T01:37:32.170Z,5.20
2018-08-22T01:39:59.678Z,6.00
2018-08-22T01:42:27.201Z,5.20
2018-08-22T01:44:55.005Z,5.33
2018-08-22T01:47:23.311Z,4.80
2018-08-22T01:49:50.815Z,5.63
2018-08-22T01:52:18.334Z,5.82
2018-08-22T01:54:45.874Z,4.93
2018-08-22T01:57:13.932Z,4.80
2018-08-22T01:59:41.443Z,5.40
2018-08-22T02:02:08.951Z,6.00
2018-08-22T02:04:36.614Z,5.20
2018-08-22T02:07:04.886Z,5.27
2018-08-22T02:09:32.380Z,5.57
2018-08-22T02:11:59.893Z,5.07
2018-08-22T02:14:27.377Z,5.00
2018-08-22T02:16:55.028Z,5.30
2018-08-22T02:19:23.438Z,5.30
2018-08-22T02:21:50.953Z,5.53
2018-08-22T02:24:18.433Z,5.57
2018-08-22T02:26:45.945Z,5.70
2018-08-22T02:29:13.517Z,4.80
2018-08-22T02:31:41.064Z,4.70
2018-08-22T02:34:08.554Z,4.90
2018-08-22T02:36:36.072Z,5.20
2018-08-22T02:39:03.556Z,5.40
2018-08-22T02:41:31.079Z,4.50
2018-08-22T02:43:58.574Z,5.60
2018-08-22T02:46:26.076Z,5.23
2018-08-22T02:48:53.613Z,6.33
2018-08-22T02:51:21.120Z,5.50
2018-08-22T02:53:48.615Z,5.63
2018-08-22T02:56:16.434Z,6.47
2018-08-22T02:58:43.974Z,4.80
2018-08-22T03:01:12.553Z,6.30
2018-08-22T03:03:40.130Z,5.30
2018-08-22T03:06:07.646Z,5.37
2018-08-22T03:08:35.179Z,6.20
2018-08-22T03:11:02.687Z,4.70
2018-08-22T03:13:30.214Z,5.23
2018-08-22T03:15:57.980Z,5.20
2018-08-22T03:18:25.800Z,5.55
2018-08-22T03:20:53.665Z,5.50
2018-08-22T03:23:21.195Z,5.93
2018-08-22T03:25:48.679Z,5.63
2018-08-22T03:28:16.565Z,5.10
2018-08-22T03:30:44.129Z,4.93
2018-08-22T03:33:12.356Z,4.93
2018-08-22T03:35:39.846Z,5.27
2018-08-22T03:38:07.349Z,5.70
2018-08-22T03:40:34.996Z,4.80
2018-08-22T03:43:02.514Z,4.80
2018-08-22T03:45:30.876Z,5.37
2018-08-22T03:47:58.448Z,5.40
2018-08-22T03:50:25.977Z,5.70
2018-08-22T03:52:53.470Z,5.17
2018-08-22T03:55:21.518Z,5.23
2018-08-22T03:57:49.036Z,5.43
2018-08-22T04:00:16.767Z,5.27
2018-08-22T04:02:44.329Z,5.45
2018-08-22T04:05:12.985Z,4.78
2018-08-22T04:07:40.488Z,5.00
2018-08-22T04:10:08.405Z,4.80
2018-08-22T04:12:35.934Z,4.90
2018-08-22T04:15:03.486Z,5.00
2018-08-22T04:17:31.021Z,4.73
2018-08-22T04:19:58.530Z,5.33
2018-08-22T04:22:26.052Z,5.17
2018-08-22T04:24:54.293Z,5.50
2018-08-22T04:27:21.803Z,5.03
2018-08-22T04:29:49.283Z,4.53
2018-08-22T04:32:16.779Z,6.10
2018-08-22T04:34:44.289Z,5.00
2018-08-22T04:37:11.790Z,6.00
2018-08-22T04:39:39.323Z,6.00
2018-08-22T04:42:07.227Z,6.50
2018-08-22T04:44:34.952Z,5.93
2018-08-22T04:47:02.462Z,5.40
2018-08-22T04:49:29.980Z,5.87
2018-08-22T04:51:57.480Z,5.50
2018-08-22T04:54:25.091Z,5.35
2018-08-22T04:56:53.346Z,5.60
2018-08-22T04:59:20.850Z,4.83
2018-08-22T05:01:48.348Z,5.50
2018-08-22T05:04:15.881Z,5.40
2018-08-22T05:06:43.369Z,5.43
2018-08-22T05:09:10.877Z,6.30
2018-08-22T05:11:38.363Z,6.93
2018-08-22T05:14:05.879Z,5.83
2018-08-22T05:16:33.408Z,5.43
2018-08-22T05:19:00.930Z,5.97
2018-08-22T05:21:28.439Z,5.17
2018-08-22T05:23:55.943Z,5.30
2018-08-22T05:26:23.438Z,5.43
2018-08-22T05:28:50.965Z,4.50
2018-08-22T05:31:18.455Z,6.70
2018-08-22T05:33:45.966Z,5.93
2018-08-22T05:36:13.448Z,5.50
2018-08-22T05:38:40.947Z,5.23
2018-08-22T05:41:08.743Z,5.50
2018-08-22T05:43:36.864Z,5.50
2018-08-22T05:46:04.363Z,6.53
2018-08-22T05:48:31.874Z,5.83
2018-08-22T05:50:59.358Z,6.53
2018-08-22T05:53:26.862Z,5.43
2018-08-22T05:55:54.394Z,5.20
2018-08-22T05:58:22.456Z,4.65
2018-08-22T06:00:49.952Z,4.97
2018-08-22T06:03:17.507Z,4.80
2018-08-22T06:05:45.020Z,4.57
2018-08-22T06:08:12.522Z,5.00
2018-08-22T06:10:40.026Z,5.83
2018-08-22T06:13:07.890Z,5.40
2018-08-22T06:15:35.533Z,5.60
2018-08-22T06:18:03.026Z,5.80
2018-08-22T06:20:30.531Z,5.63
2018-08-22T06:22:58.042Z,5.63
2018-08-22T06:25:25.828Z,4.80
2018-08-22T06:27:53.298Z,4.67
2018-08-22T06:30:20.818Z,5.47
2018-08-22T06:32:48.305Z,5.40
2018-08-22T06:35:15.879Z,4.70
2018-08-22T06:37:43.803Z,4.13
2018-08-22T06:40:11.780Z,5.60
2018-08-22T06:42:39.278Z,4.57
2018-08-22T06:45:07.210Z,5.30
2018-08-22T06:47:34.899Z,4.30
2018-08-22T06:50:02.615Z,4.63
2018-08-22T06:52:30.088Z,4.90
2018-08-22T06:54:57.612Z,4.90
2018-08-22T06:57:25.105Z,4.13
2018-08-22T06:59:52.616Z,4.40
2018-08-22T07:02:20.114Z,4.40
2018-08-22T07:04:47.614Z,5.00
2018-08-22T07:07:16.182Z,4.90
2018-08-22T07:09:43.709Z,4.03
2018-08-22T07:12:11.215Z,4.50
2018-08-22T07:14:38.730Z,4.27
2018-08-22T07:17:06.390Z,5.40
2018-08-22T07:19:33.889Z,5.07
2018-08-22T07:22:28.181Z,4.00
2018-08-22T07:24:55.839Z,4.80
2018-08-22T07:27:23.334Z,4.97
2018-08-22T07:29:50.839Z,4.50
2018-08-22T07:32:18.336Z,4.70
2018-08-22T07:34:45.874Z,4.97
2018-08-22T07:37:13.358Z,4.37
2018-08-22T07:39:41.674Z,5.57
2018-08-22T07:42:09.366Z,4.67
2018-08-22T07:44:37.007Z,5.00
2018-08-22T07:47:04.551Z,5.10
2018-08-22T07:49:32.071Z,4.20
2018-08-22T07:51:59.567Z,5.90
2018-08-22T07:54:27.835Z,4.10
2018-08-22T07:56:55.471Z,4.10
2018-08-22T07:59:22.984Z,4.70
2018-08-22T08:01:50.658Z,4.50
2018-08-22T08:04:17.992Z,4.67
2018-08-22T08:06:45.926Z,4.47
2018-08-22T08:09:13.429Z,4.67
2018-08-22T08:11:40.940Z,5.33
2018-08-22T08:14:08.716Z,5.13
2018-08-22T08:16:36.425Z,5.30
2018-08-22T08:19:03.933Z,4.70
2018-08-22T08:21:31.446Z,5.20
2018-08-22T08:23:58.947Z,4.87
2018-08-22T08:26:27.447Z,5.78
2018-08-22T08:28:55.003Z,5.40
2018-08-22T08:31:22.518Z,4.97
2018-08-22T08:33:50.007Z,5.73
2018-08-22T08:36:17.520Z,5.10
2018-08-22T08:38:45.013Z,4.50
2018-08-22T08:41:12.522Z,4.50
2018-08-22T08:43:40.035Z,5.60
2018-08-22T08:46:08.070Z,4.90
2018-08-22T08:48:35.766Z,5.68
2018-08-22T08:51:03.266Z,5.10
2018-08-22T08:53:30.775Z,5.03
2018-08-22T08:55:58.308Z,5.33
2018-08-22T08:58:25.855Z,5.30
2018-08-22T09:00:53.376Z,7.00
2018-08-22T09:03:20.873Z,7.87
2018-08-22T09:05:48.449Z,5.80
2018-08-22T09:08:15.947Z,6.60
2018-08-22T09:10:43.496Z,6.20
2018-08-22T09:13:10.994Z,6.40
2018-08-22T09:15:38.553Z,6.37
2018-08-22T09:18:06.010Z,6.57
2018-08-22T09:20:33.526Z,6.60
2018-08-22T09:23:01.034Z,6.57
2018-08-22T09:25:28.555Z,6.20
2018-08-22T09:27:56.050Z,6.30
2018-08-22T09:30:23.557Z,6.00
2018-08-22T09:32:51.047Z,5.60
2018-08-22T09:35:18.588Z,5.97
2018-08-22T09:37:46.078Z,8.87
2018-08-22T09:40:13.617Z,5.87
2018-08-22T09:42:41.089Z,6.00
2018-08-22T09:45:09.899Z,5.53
2018-08-22T09:47:37.403Z,5.93
2018-08-22T09:50:04.995Z,6.50
2018-08-22T09:52:32.522Z,5.60
2018-08-22T09:55:00.041Z,6.43
2018-08-22T09:57:27.555Z,6.00
2018-08-22T09:59:55.804Z,7.00
2018-08-22T10:02:23.900Z,6.33
2018-08-22T10:04:51.740Z,6.40
2018-08-22T10:07:19.985Z,16.70
2018-08-22T10:09:48.125Z,6.97
2018-08-22T10:12:16.270Z,6.33
2018-08-22T10:14:43.754Z,5.43
2018-08-22T10:17:11.303Z,5.60
2018-08-22T10:19:38.839Z,7.40
2018-08-22T10:22:06.870Z,5.97
2018-08-22T10:24:34.366Z,6.47
2018-08-22T10:27:01.952Z,6.90
2018-08-22T10:29:29.394Z,6.00
2018-08-22T10:31:57.670Z,5.70
2018-08-22T10:34:25.391Z,6.00
2018-08-22T10:36:52.900Z,6.43
2018-08-22T10:39:20.443Z,5.27
2018-08-22T10:41:47.913Z,5.77
2018-08-22T10:44:15.489Z,5.50
2018-08-22T10:46:43.038Z,5.47
2018-08-22T10:49:10.546Z,5.70
2018-08-22T10:51:38.041Z,5.87
2018-08-22T10:54:06.639Z,5.10
2018-08-22T10:56:34.197Z,5.83
2018-08-22T10:59:01.716Z,6.00
2018-08-22T11:01:29.240Z,6.00
2018-08-22T11:03:56.818Z,5.73
2018-08-22T11:06:24.340Z,5.47
2018-08-22T11:08:51.836Z,5.77
2018-08-22T11:11:19.392Z,5.43
2018-08-22T11:13:47.656Z,5.90
2018-08-22T11:16:15.439Z,5.67
2018-08-22T11:18:42.922Z,5.63
2018-08-22T11:21:14.068Z,5.83
2018-08-22T11:23:45.232Z,5.33
2018-08-22T11:26:15.478Z,5.57
2018-08-22T11:28:46.603Z,5.77
2018-08-22T11:31:16.694Z,5.70
2018-08-22T11:33:46.759Z,5.57
2018-08-22T11:36:13.770Z,5.30
2018-08-22T11:38:41.298Z,5.23
2018-08-22T11:41:08.951Z,5.77
2018-08-22T11:43:36.651Z,6.30
2018-08-22T11:46:05.044Z,5.80
2018-08-22T11:48:32.556Z,5.93
2018-08-22T11:51:00.049Z,5.60
2018-08-22T11:53:28.334Z,4.70
2018-08-22T11:55:55.833Z,4.70
2018-08-22T11:58:23.399Z,5.63
2018-08-22T12:00:50.878Z,4.70
2018-08-22T12:03:18.384Z,5.20
2018-08-22T12:05:45.913Z,4.57
2018-08-22T12:08:13.432Z,5.40
2018-08-22T12:10:40.999Z,4.07
2018-08-22T12:13:08.631Z,4.53
2018-08-22T12:15:36.270Z,5.50
2018-08-22T12:18:03.796Z,4.87
2018-08-22T12:20:31.805Z,5.53
2018-08-22T12:22:59.413Z,4.43
2018-08-22T12:25:26.964Z,4.40
2018-08-22T12:27:54.623Z,6.80
2018-08-22T12:30:22.147Z,6.10
2018-08-22T12:32:49.653Z,4.53
2018-08-22T12:35:17.910Z,4.40
2018-08-22T12:37:45.496Z,4.60
2018-08-22T12:40:12.983Z,4.53
2018-08-22T12:42:40.851Z,4.50
2018-08-22T12:45:09.459Z,4.03
2018-08-22T12:47:37.038Z,4.13
2018-08-22T12:50:04.577Z,5.07
2018-08-22T12:52:32.083Z,4.70
2018-08-22T12:54:59.682Z,4.90
2018-08-22T12:57:27.958Z,7.80
2018-08-22T12:59:55.469Z,4.80
2018-08-22T13:02:22.974Z,4.80
2018-08-22T13:04:50.490Z,11.40
2018-08-22T13:07:18.007Z,4.33
2018-08-22T13:09:45.774Z,4.13
2018-08-22T13:12:13.276Z,4.20
2018-08-22T13:14:40.993Z,4.17
2018-08-22T13:17:08.790Z,3.60
2018-08-22T13:19:36.470Z,3.70
2018-08-22T13:22:04.028Z,3.80
2018-08-22T13:24:32.825Z,3.93
2018-08-22T13:27:00.367Z,3.33
2018-08-22T13:29:27.880Z,3.90
2018-08-22T13:31:55.470Z,3.67
2018-08-22T13:34:22.975Z,3.80
2018-08-22T13:36:50.462Z,3.97
2018-08-22T13:39:17.978Z,4.20
2018-08-22T13:41:45.756Z,3.80
2018-08-22T13:44:13.317Z,4.10
2018-08-22T13:46:40.814Z,3.73
2018-08-22T13:49:08.493Z,3.80
2018-08-22T13:51:35.987Z,4.40
2018-08-22T13:54:03.492Z,3.53
2018-08-22T13:56:31.027Z,4.00
2018-08-22T13:58:58.518Z,3.25
2018-08-22T14:01:26.512Z,3.77
2018-08-22T14:03:53.989Z,3.80
2018-08-22T14:06:21.661Z,3.83
2018-08-22T14:08:49.169Z,3.90
2018-08-22T14:11:16.785Z,3.30
2018-08-22T14:13:44.348Z,3.27
2018-08-22T14:16:11.903Z,3.40
2018-08-22T14:18:39.374Z,3.47
2018-08-22T14:21:07.275Z,3.40
2018-08-22T14:23:34.999Z,3.57
2018-08-22T14:26:02.490Z,3.33
2018-08-22T14:28:30.005Z,3.10
2018-08-22T14:30:57.499Z,3.40
2018-08-22T14:33:25.062Z,3.70
2018-08-22T14:35:52.547Z,3.87
2018-08-22T14:38:20.050Z,4.10
2018-08-22T14:40:47.674Z,3.53
2018-08-22T14:43:15.467Z,3.20
2018-08-22T14:45:42.959Z,3.10
2018-08-22T14:48:10.618Z,3.07
2018-08-22T14:50:38.152Z,3.30
2018-08-22T14:53:06.002Z,3.10
2018-08-22T14:55:34.615Z,3.10
2018-08-22T14:58:02.165Z,3.40
2018-08-22T15:00:29.683Z,3.13
2018-08-22T15:02:57.481Z,3.17
2018-08-22T15:05:24.737Z,3.30
2018-08-22T15:07:52.443Z,3.00
2018-08-22T15:10:19.975Z,3.43
2018-08-22T15:12:47.508Z,3.30
2018-08-22T15:15:15.050Z,3.30
2018-08-22T15:17:42.542Z,4.50
2018-08-22T15:20:10.726Z,3.67
2018-08-22T15:22:38.216Z,3.60
2018-08-22T15:25:05.878Z,3.27
2018-08-22T15:27:33.403Z,3.53
2018-08-22T15:30:00.978Z,4.40
2018-08-22T15:32:28.482Z,4.03
2018-08-22T15:34:55.990Z,4.00
2018-08-22T15:37:23.552Z,4.13
2018-08-22T15:39:51.066Z,4.40
2018-08-22T15:42:18.551Z,4.60
2018-08-22T15:44:46.114Z,3.93
2018-08-22T15:47:13.678Z,4.00
2018-08-22T15:49:41.139Z,4.35
2018-08-22T15:52:08.943Z,4.27
2018-08-22T15:54:36.618Z,4.07
2018-08-22T15:57:04.127Z,4.20
2018-08-22T15:59:31.646Z,4.20
2018-08-22T16:01:59.154Z,4.30
2018-08-22T16:04:26.870Z,3.80
2018-08-22T16:06:54.591Z,4.17
2018-08-22T16:09:22.101Z,4.40
2018-08-22T16:11:49.594Z,4.20
2018-08-22T16:14:17.112Z,4.43
2018-08-22T16:16:44.606Z,4.33
2018-08-22T16:19:12.127Z,3.87
2018-08-22T16:21:39.623Z,5.97
2018-08-22T16:24:07.404Z,4.50
2018-08-22T16:26:35.047Z,3.97
2018-08-22T16:29:02.562Z,4.30
2018-08-22T16:31:30.133Z,4.33
2018-08-22T16:33:57.640Z,3.67
2018-08-22T16:36:25.132Z,4.20
2018-08-22T16:38:52.652Z,4.47
2018-08-22T16:41:20.154Z,4.33
2018-08-22T16:43:47.643Z,4.20
2018-08-22T16:46:15.442Z,3.90
2018-08-22T16:48:42.929Z,4.27
2018-08-22T16:51:10.453Z,3.93
2018-08-22T16:53:37.946Z,4.43
2018-08-22T16:56:05.514Z,5.10
2018-08-22T16:58:33.018Z,4.30
2018-08-22T17:01:01.210Z,4.70
2018-08-22T17:03:28.715Z,4.43
2018-08-22T17:05:56.353Z,4.17
2018-08-22T17:08:23.889Z,4.20
2018-08-22T17:10:51.411Z,3.87
2018-08-22T17:13:18.907Z,3.83
2018-08-22T17:15:46.485Z,4.23
2018-08-22T17:18:14.860Z,4.70
2018-08-22T17:20:42.477Z,4.63
2018-08-22T17:23:10.021Z,4.63
2018-08-22T17:25:37.491Z,4.57
2018-08-22T17:28:05.111Z,4.80
2018-08-22T17:30:32.747Z,4.43
2018-08-22T17:33:00.234Z,4.43
2018-08-22T17:35:27.730Z,4.17
2018-08-22T17:37:55.463Z,4.23
2018-08-22T17:40:22.964Z,4.10
2018-08-22T17:42:50.471Z,4.03
2018-08-22T17:45:17.959Z,4.23
2018-08-22T17:47:45.575Z,3.80
2018-08-22T17:50:13.069Z,4.67
2018-08-22T17:52:40.576Z,4.07
2018-08-22T17:55:09.311Z,3.83
2018-08-22T17:57:37.020Z,4.10
2018-08-22T18:00:04.513Z,4.53
2018-08-22T18:02:32.034Z,4.77
2018-08-22T18:04:59.522Z,4.30
2018-08-22T18:07:27.038Z,4.80
2018-08-22T18:09:55.484Z,5.03
2018-08-22T18:12:23.012Z,4.87
2018-08-22T18:14:50.513Z,4.30
2018-08-22T18:17:18.004Z,4.40
2018-08-22T18:19:46.545Z,5.03
2018-08-22T18:22:14.035Z,4.30
2018-08-22T18:24:41.545Z,5.00
2018-08-22T18:27:09.128Z,4.50
2018-08-22T18:29:36.855Z,5.30
2018-08-22T18:32:04.400Z,4.95
2018-08-22T18:34:31.943Z,4.50
2018-08-22T18:36:59.441Z,5.67
2018-08-22T18:39:27.715Z,5.50
2018-08-22T18:41:55.442Z,5.20
2018-08-22T18:44:22.962Z,6.03
2018-08-22T18:46:50.544Z,5.77
2018-08-22T18:49:18.076Z,5.60
2018-08-22T18:51:45.803Z,5.67
2018-08-22T18:54:13.321Z,5.87
2018-08-22T18:56:40.823Z,5.37
2018-08-22T18:59:08.959Z,5.87
2018-08-22T19:01:36.625Z,6.90
2018-08-22T19:04:04.156Z,6.37
2018-08-22T19:06:31.675Z,6.20
2018-08-22T19:08:59.235Z,6.47
2018-08-22T19:11:26.846Z,6.50
2018-08-22T19:13:54.352Z,6.53
2018-08-22T19:16:21.871Z,6.80
2018-08-22T19:18:49.392Z,6.63
2018-08-22T19:21:17.232Z,7.32
2018-08-22T19:23:44.993Z,7.73
2018-08-22T19:26:12.664Z,6.37
2018-08-22T19:28:40.190Z,7.23
2018-08-22T19:31:07.682Z,6.23
2018-08-22T19:33:35.433Z,7.00
2018-08-22T19:36:03.044Z,5.97
2018-08-22T19:38:30.424Z,6.60
2018-08-22T19:40:57.930Z,6.50
2018-08-22T19:43:25.533Z,6.00
2018-08-22T19:45:53.798Z,7.07
2018-08-22T19:48:21.292Z,5.90
2018-08-22T19:50:48.820Z,6.53
2018-08-22T19:53:16.549Z,6.63
2018-08-22T19:55:44.057Z,6.17
2018-08-22T19:58:11.713Z,6.40
2018-08-22T20:00:39.248Z,5.87
2018-08-22T20:03:06.866Z,6.80
2018-08-22T20:05:34.384Z,7.60
2018-08-22T20:08:01.882Z,8.80
2018-08-22T20:10:29.390Z,8.80
2018-08-22T20:12:57.018Z,8.43
2018-08-22T20:15:24.543Z,8.53
2018-08-22T20:17:52.035Z,9.03
2018-08-22T20:20:19.573Z,8.70
2018-08-22T20:22:47.876Z,9.10
2018-08-22T20:25:17.042Z,8.90
2018-08-22T20:27:44.564Z,10.10
2018-08-22T20:30:12.241Z,10.02
2018-08-22T20:32:39.755Z,10.10
2018-08-22T20:35:07.663Z,9.07
2018-08-22T20:37:35.447Z,9.40
2018-08-22T20:40:03.048Z,9.50
2018-08-22T20:42:30.648Z,8.80
2018-08-22T20:44:58.121Z,7.83
2018-08-22T20:47:25.785Z,8.30
2018-08-22T20:49:53.306Z,8.20
2018-08-22T20:52:20.811Z,8.43
2018-08-22T20:54:48.307Z,7.70
2018-08-22T20:57:16.059Z,8.43
2018-08-22T20:59:43.549Z,8.60
2018-08-22T21:02:11.089Z,8.57
2018-08-22T21:04:39.142Z,8.73
2018-08-22T21:07:06.825Z,9.30
2018-08-22T21:09:34.331Z,8.43
2018-08-22T21:12:01.855Z,8.20
2018-08-22T21:14:29.343Z,9.63
2018-08-22T21:16:56.967Z,10.33
2018-08-22T21:19:24.472Z,8.43
2018-08-22T21:21:51.992Z,7.97
2018-08-22T21:24:19.490Z,7.90
2018-08-22T21:26:47.768Z,7.57
2018-08-22T21:29:15.457Z,9.43
2018-08-22T21:31:42.987Z,8.50
2018-08-22T21:34:10.498Z,8.00
2018-08-22T21:36:38.002Z,8.80
2018-08-22T21:39:05.775Z,9.77
2018-08-22T21:41:33.322Z,8.40
2018-08-22T21:44:00.806Z,9.23
2018-08-22T21:46:28.314Z,7.73
2018-08-22T21:48:55.914Z,8.57
2018-08-22T21:51:23.411Z,8.70
2018-08-22T21:53:50.940Z,8.83
2018-08-22T21:56:18.480Z,9.77
2018-08-22T21:58:46.007Z,8.80
2018-08-22T22:01:13.744Z,7.90
2018-08-22T22:03:41.264Z,8.20
2018-08-22T22:06:08.754Z,9.87
2018-08-22T22:08:36.490Z,8.10
2018-08-22T22:11:03.992Z,8.17
2018-08-22T22:13:31.613Z,9.37
2018-08-22T22:15:59.035Z,7.33
2018-08-22T22:18:26.689Z,6.87
2018-08-22T22:20:54.213Z,6.67
2018-08-22T22:23:21.753Z,7.00
2018-08-22T22:25:50.021Z,6.80
2018-08-22T22:28:17.527Z,7.20
2018-08-22T22:30:45.827Z,6.83
2018-08-22T22:33:14.638Z,7.10
2018-08-22T22:35:42.140Z,6.80
2018-08-22T22:38:09.671Z,6.97
2018-08-22T22:40:37.209Z,7.27
2018-08-22T22:43:05.010Z,7.37
2018-08-22T22:45:32.508Z,7.73
2018-08-22T22:48:00.057Z,7.77
2018-08-22T22:50:27.540Z,7.00
2018-08-22T22:52:55.073Z,8.13
2018-08-22T22:55:22.573Z,7.40
2018-08-22T22:57:50.089Z,7.50
2018-08-22T23:00:17.909Z,6.93
2018-08-22T23:02:45.934Z,7.17
2018-08-22T23:05:14.241Z,7.00
2018-08-22T23:07:41.736Z,7.30
2018-08-22T23:10:09.246Z,6.67
2018-08-22T23:12:36.876Z,7.40
2018-08-22T23:15:04.367Z,6.17
2018-08-22T23:17:31.870Z,6.87
2018-08-22T23:19:59.385Z,6.97
2018-08-22T23:22:27.045Z,7.07
2018-08-22T23:24:54.554Z,5.90
2018-08-22T23:27:22.049Z,6.53
2018-08-22T23:29:49.553Z,6.00
2018-08-22T23:32:17.815Z,6.77
2018-08-22T23:34:45.490Z,6.20
2018-08-22T23:37:12.981Z,6.40
2018-08-22T23:39:40.503Z,6.55
2018-08-22T23:42:08.002Z,6.50
2018-08-22T23:44:35.772Z,6.87
2018-08-22T23:47:03.260Z,6.60
2018-08-22T23:49:31.154Z,7.57
2018-08-22T23:51:58.677Z,6.43
2018-08-22T23:54:26.302Z,7.23
2018-08-22T23:56:53.803Z,7.20
2018-08-22T23:59:21.308Z,7.20
